createdAt,value
2022-08-06T00:00:10.555Z,1.57
2022-08-06T00:01:45.238Z,1.70
2022-08-06T00:03:18.276Z,2.10
2022-08-06T00:04:54.571Z,2.40
2022-08-06T00:06:30.161Z,1.50
2022-08-06T00:08:02.409Z,1.73
2022-08-06T00:09:59.914Z,2.23
2022-08-06T00:11:26.485Z,1.50
2022-08-06T00:13:00.361Z,1.43
2022-08-06T00:14:34.501Z,1.70
2022-08-06T00:16:31.412Z,2.13
2022-08-06T00:18:00.707Z,1.47
2022-08-06T00:19:48.066Z,1.73
2022-08-06T00:21:40.805Z,1.97
2022-08-06T00:23:16.992Z,2.00
2022-08-06T00:24:48.999Z,1.83
2022-08-06T00:26:20.751Z,1.80
2022-08-06T00:28:00.552Z,2.27
2022-08-06T00:29:47.183Z,2.00
2022-08-06T00:31:23.171Z,1.67
2022-08-06T00:32:58.609Z,2.10
2022-08-06T00:34:30.368Z,1.90
2022-08-06T00:36:02.323Z,1.73
2022-08-06T00:37:57.620Z,1.70
2022-08-06T00:39:26.399Z,1.97
2022-08-06T00:41:05.043Z,1.73
2022-08-06T00:42:39.675Z,2.00
2022-08-06T00:44:15.363Z,1.80
2022-08-06T00:46:04.971Z,1.90
2022-08-06T00:48:00.943Z,1.77
2022-08-06T00:49:48.687Z,1.90
2022-08-06T00:51:21.328Z,2.00
2022-08-06T00:52:53.451Z,1.73
2022-08-06T00:54:28.467Z,1.80
2022-08-06T00:56:08.612Z,1.87
2022-08-06T00:57:42.601Z,2.50
2022-08-06T00:59:14.864Z,1.77
2022-08-06T01:00:51.578Z,2.07
2022-08-06T01:02:26.285Z,1.90
2022-08-06T01:03:58.532Z,2.10
2022-08-06T01:06:03.477Z,2.20
2022-08-06T01:07:22.337Z,2.00
2022-08-06T01:08:54.219Z,1.97
2022-08-06T01:10:31.199Z,2.83
2022-08-06T01:12:14.277Z,2.17
2022-08-06T01:14:02.678Z,2.53
2022-08-06T01:16:07.299Z,1.93
2022-08-06T01:17:40.107Z,1.93
2022-08-06T01:21:20.975Z,2.13
2022-08-06T01:22:29.498Z,2.27
2022-08-06T01:24:25.222Z,2.10
2022-08-06T01:26:25.046Z,1.90
2022-08-06T01:28:06.954Z,1.83
2022-08-06T01:29:45.479Z,2.50
2022-08-06T01:31:28.297Z,1.97
2022-08-06T01:33:10.483Z,1.80
2022-08-06T01:34:55.816Z,1.93
2022-08-06T01:36:37.098Z,2.30
2022-08-06T01:38:43.682Z,2.07
2022-08-06T01:40:22.551Z,2.50
2022-08-06T01:41:59.212Z,2.17
2022-08-06T01:44:05.357Z,2.10
2022-08-06T01:45:42.478Z,2.00
2022-08-06T01:47:26.784Z,2.00
2022-08-06T01:49:59.393Z,2.47
2022-08-06T01:51:17.457Z,1.70
2022-08-06T01:53:15.727Z,1.90
2022-08-06T01:54:52.358Z,2.43
2022-08-06T01:56:30.996Z,2.10
2022-08-06T01:58:29.414Z,1.87
2022-08-06T02:00:02.288Z,2.50
2022-08-06T02:01:53.393Z,1.90
2022-08-06T02:03:39.152Z,2.03
2022-08-06T02:05:23.453Z,1.50
2022-08-06T02:06:57.152Z,2.10
2022-08-06T02:08:38.496Z,1.80
2022-08-06T02:10:16.280Z,2.53
2022-08-06T02:12:02.545Z,1.97
2022-08-06T02:13:46.439Z,2.67
2022-08-06T02:15:56.154Z,2.10
2022-08-06T02:17:26.605Z,2.40
2022-08-06T02:19:30.885Z,2.07
2022-08-06T02:21:32.366Z,2.10
2022-08-06T02:23:09.397Z,2.07
2022-08-06T02:24:42.721Z,2.40
2022-08-06T02:26:19.494Z,2.27
2022-08-06T02:27:59.213Z,2.20
2022-08-06T02:29:47.129Z,2.30
2022-08-06T02:31:25.589Z,2.37
2022-08-06T02:33:02.505Z,2.33
2022-08-06T02:34:34.660Z,2.47
2022-08-06T02:36:20.445Z,2.60
2022-08-06T02:38:10.680Z,2.60
2022-08-06T02:39:56.961Z,2.60
2022-08-06T02:41:38.453Z,2.27
2022-08-06T02:43:22.518Z,3.17
2022-08-06T02:45:13.797Z,2.60
2022-08-06T02:46:53.063Z,2.50
2022-08-06T02:48:35.710Z,2.43
2022-08-06T02:50:09.351Z,2.47
2022-08-06T02:52:11.611Z,2.80
2022-08-06T02:54:12.531Z,2.20
2022-08-06T02:55:48.736Z,3.10
2022-08-06T02:57:29.766Z,2.47
2022-08-06T02:59:27.247Z,2.70
2022-08-06T03:01:21.650Z,3.53
2022-08-06T03:03:01.173Z,2.97
2022-08-06T03:04:35.772Z,2.27
2022-08-06T03:06:09.539Z,2.60
2022-08-06T03:07:47.595Z,2.87
2022-08-06T03:09:21.487Z,2.83
2022-08-06T03:10:55.385Z,2.57
2022-08-06T03:12:39.302Z,3.07
2022-08-06T03:14:53.781Z,2.57
2022-08-06T03:16:24.040Z,2.97
2022-08-06T03:18:01.585Z,2.63
2022-08-06T03:19:54.764Z,2.40
2022-08-06T03:21:34.374Z,2.60
2022-08-06T03:23:10.141Z,3.00
2022-08-06T03:24:44.119Z,2.87
2022-08-06T03:26:20.007Z,2.70
2022-08-06T03:27:57.370Z,2.83
2022-08-06T03:29:36.637Z,2.57
2022-08-06T03:31:09.567Z,2.50
2022-08-06T03:32:52.039Z,2.77
2022-08-06T03:34:25.699Z,3.10
2022-08-06T03:36:01.123Z,2.40
2022-08-06T03:37:59.590Z,2.30
2022-08-06T03:39:28.073Z,2.73
2022-08-06T03:41:03.611Z,2.80
2022-08-06T03:42:37.091Z,2.33
2022-08-06T03:44:09.602Z,3.00
2022-08-06T03:45:55.744Z,2.27
2022-08-06T03:47:49.401Z,2.43
2022-08-06T03:49:42.414Z,3.07
2022-08-06T03:51:50.415Z,2.60
2022-08-06T03:53:28.851Z,2.87
2022-08-06T03:55:05.096Z,2.67
2022-08-06T03:56:41.379Z,2.73
2022-08-06T03:58:28.144Z,2.90
2022-08-06T04:00:02.417Z,2.93
2022-08-06T04:01:50.517Z,2.77
2022-08-06T04:03:23.539Z,3.10
2022-08-06T04:04:57.415Z,3.23
2022-08-06T04:06:30.240Z,3.20
2022-08-06T04:08:08.522Z,2.70
2022-08-06T04:09:59.201Z,3.13
2022-08-06T04:12:10.998Z,3.10
2022-08-06T04:14:04.919Z,2.57
2022-08-06T04:15:18.735Z,2.67
2022-08-06T04:16:53.201Z,2.90
2022-08-06T04:18:29.471Z,2.50
2022-08-06T04:20:03.079Z,2.50
2022-08-06T04:23:06.323Z,3.00
2022-08-06T04:23:38.317Z,2.70
2022-08-06T04:25:13.018Z,3.30
2022-08-06T04:26:49.865Z,3.30
2022-08-06T04:28:24.146Z,3.70
2022-08-06T04:30:02.495Z,4.13
2022-08-06T04:32:12.965Z,3.30
2022-08-06T04:33:35.288Z,3.00
2022-08-06T04:36:07.150Z,3.20
2022-08-06T04:37:05.029Z,2.97
2022-08-06T04:38:40.135Z,3.00
2022-08-06T04:40:15.258Z,3.20
2022-08-06T04:41:56.958Z,2.90
2022-08-06T04:43:38.794Z,2.93
2022-08-06T04:46:16.916Z,3.37
2022-08-06T04:47:20.470Z,2.90
2022-08-06T04:48:56.918Z,2.90
2022-08-06T04:50:32.849Z,2.70
2022-08-06T04:52:48.986Z,3.57
2022-08-06T04:53:58.066Z,3.20
2022-08-06T04:55:33.556Z,3.13
2022-08-06T04:57:21.662Z,3.23
2022-08-06T04:58:54.144Z,3.30
2022-08-06T05:00:33.646Z,3.10
2022-08-06T05:02:18.691Z,3.10
2022-08-06T05:04:06.393Z,3.30
2022-08-06T05:05:47.668Z,3.20
2022-08-06T05:07:51.814Z,3.10
2022-08-06T05:09:38.143Z,3.43
2022-08-06T05:11:22.016Z,3.30
2022-08-06T05:12:57.763Z,3.73
2022-08-06T05:15:02.423Z,3.00
2022-08-06T05:16:38.860Z,3.10
2022-08-06T05:19:15.875Z,3.10
2022-08-06T05:20:27.487Z,3.17
2022-08-06T05:22:10.443Z,4.33
2022-08-06T05:23:47.759Z,3.73
2022-08-06T05:25:22.810Z,3.70
2022-08-06T05:26:59.366Z,3.20
2022-08-06T05:28:32.401Z,3.30
2022-08-06T05:30:05.107Z,3.50
2022-08-06T05:31:40.579Z,3.60
2022-08-06T05:33:16.677Z,3.30
2022-08-06T05:34:52.067Z,3.30
2022-08-06T05:36:30.584Z,2.97
2022-08-06T05:38:04.626Z,4.20
2022-08-06T05:39:58.704Z,3.70
2022-08-06T05:41:33.548Z,3.53
2022-08-06T05:43:09.709Z,3.80
2022-08-06T05:44:41.435Z,3.40
2022-08-06T05:46:21.619Z,3.70
2022-08-06T05:48:00.974Z,3.93
2022-08-06T05:49:57.398Z,3.73
2022-08-06T05:51:43.129Z,4.10
2022-08-06T05:54:03.889Z,3.50
2022-08-06T05:55:18.835Z,4.10
2022-08-06T05:57:05.841Z,3.33
2022-08-06T05:58:42.729Z,4.03
2022-08-06T06:00:42.493Z,4.07
2022-08-06T06:02:19.090Z,3.83
2022-08-06T06:03:56.387Z,3.63
2022-08-06T06:06:07.236Z,3.70
2022-08-06T06:08:10.051Z,4.00
2022-08-06T06:09:14.446Z,4.20
2022-08-06T06:10:53.363Z,4.07
2022-08-06T06:12:31.743Z,4.33
2022-08-06T06:14:07.266Z,3.30
2022-08-06T06:16:02.031Z,3.90
2022-08-06T06:18:34.470Z,4.47
2022-08-06T06:20:09.751Z,4.10
2022-08-06T06:22:08.437Z,3.70
2022-08-06T06:23:47.215Z,3.40
2022-08-06T06:25:36.675Z,3.60
2022-08-06T06:27:35.858Z,3.50
2022-08-06T06:29:33.804Z,3.40
2022-08-06T06:32:04.359Z,2.83
2022-08-06T06:33:41.870Z,3.10
2022-08-06T06:35:33.951Z,3.07
2022-08-06T06:37:26.492Z,3.13
2022-08-06T06:39:14.633Z,2.60
2022-08-06T06:41:03.220Z,2.83
2022-08-06T06:43:09.945Z,2.97
2022-08-06T06:46:06.386Z,3.03
2022-08-06T06:47:04.366Z,2.90
2022-08-06T06:48:48.449Z,3.40
2022-08-06T06:50:24.669Z,3.07
2022-08-06T06:52:09.063Z,2.80
2022-08-06T06:54:06.225Z,2.93
2022-08-06T06:55:55.819Z,2.63
2022-08-06T06:57:43.687Z,2.63
2022-08-06T06:59:22.576Z,2.80
2022-08-06T07:01:14.116Z,2.50
2022-08-06T07:02:52.876Z,2.80
2022-08-06T07:04:26.615Z,2.90
2022-08-06T07:06:04.850Z,2.53
2022-08-06T07:07:44.756Z,2.60
2022-08-06T07:09:40.197Z,2.90
2022-08-06T07:11:21.304Z,2.30
2022-08-06T07:13:00.557Z,2.50
2022-08-06T07:14:36.586Z,2.17
2022-08-06T07:16:11.305Z,2.97
2022-08-06T07:18:24.206Z,2.50
2022-08-06T07:19:58.996Z,2.20
2022-08-06T07:21:33.132Z,1.97
2022-08-06T07:24:05.775Z,2.27
2022-08-06T07:25:01.553Z,1.73
2022-08-06T07:26:35.776Z,1.60
2022-08-06T07:28:12.164Z,2.00
2022-08-06T07:29:59.414Z,2.20
2022-08-06T07:31:36.601Z,2.03
2022-08-06T07:33:10.897Z,2.20
2022-08-06T07:34:45.508Z,2.00
2022-08-06T07:36:19.167Z,2.13
2022-08-06T07:37:56.600Z,1.90
2022-08-06T07:39:39.219Z,1.70
2022-08-06T07:41:13.584Z,1.67
2022-08-06T07:42:54.339Z,1.83
2022-08-06T07:44:29.357Z,1.47
2022-08-06T07:46:05.036Z,1.50
2022-08-06T07:47:54.810Z,2.00
2022-08-06T07:50:00.411Z,2.00
2022-08-06T07:51:34.146Z,1.63
2022-08-06T07:53:07.363Z,1.50
2022-08-06T07:54:41.422Z,2.20
2022-08-06T07:56:14.706Z,2.40
2022-08-06T07:57:55.967Z,2.00
2022-08-06T07:59:31.404Z,1.70
2022-08-06T08:01:04.767Z,1.23
2022-08-06T08:02:37.454Z,1.80
2022-08-06T08:04:34.466Z,1.80
2022-08-06T08:06:18.780Z,1.50
2022-08-06T08:07:57.586Z,1.30
2022-08-06T08:10:02.365Z,1.20
2022-08-06T08:11:38.320Z,1.30
2022-08-06T08:13:19.301Z,1.30
2022-08-06T08:15:18.000Z,1.37
2022-08-06T08:16:54.732Z,1.20
2022-08-06T08:18:33.673Z,1.10
2022-08-06T08:20:11.273Z,1.27
2022-08-06T08:21:49.284Z,1.20
2022-08-06T08:23:34.008Z,1.40
2022-08-06T08:25:09.652Z,1.23
2022-08-06T08:27:03.633Z,1.63
2022-08-06T08:28:34.001Z,1.00
2022-08-06T08:30:06.391Z,1.30
2022-08-06T08:31:38.639Z,1.43
2022-08-06T08:33:12.159Z,1.00
2022-08-06T08:34:53.531Z,1.47
2022-08-06T08:36:30.460Z,1.30
2022-08-06T08:38:02.685Z,1.60
2022-08-06T08:39:34.568Z,1.40
2022-08-06T08:41:24.191Z,1.03
2022-08-06T08:43:23.884Z,1.10
2022-08-06T08:45:17.286Z,1.03
2022-08-06T08:46:57.978Z,1.00
2022-08-06T08:48:31.836Z,1.07
2022-08-06T08:50:04.265Z,1.77
2022-08-06T08:51:43.013Z,1.07
2022-08-06T08:53:46.140Z,1.00
2022-08-06T08:57:11.430Z,1.10
2022-08-06T08:58:40.017Z,1.23
2022-08-06T08:59:57.408Z,1.00
2022-08-06T09:00:54.767Z,1.13
2022-08-06T09:02:27.991Z,1.10
2022-08-06T09:04:03.985Z,1.10
2022-08-06T09:05:36.717Z,1.20
2022-08-06T09:07:10.284Z,1.10
2022-08-06T09:09:02.652Z,0.83
2022-08-06T09:10:36.504Z,1.23
2022-08-06T09:12:19.626Z,1.10
2022-08-06T09:14:03.626Z,1.20
2022-08-06T09:15:40.349Z,1.00
2022-08-06T09:17:13.094Z,1.20
2022-08-06T09:18:44.905Z,1.00
2022-08-06T09:20:16.841Z,1.00
2022-08-06T09:21:50.970Z,1.20
2022-08-06T09:23:23.048Z,1.20
2022-08-06T09:24:54.756Z,1.17
2022-08-06T09:26:54.562Z,1.10
2022-08-06T09:28:32.283Z,1.10
2022-08-06T09:30:25.710Z,1.00
2022-08-06T09:32:01.185Z,1.00
2022-08-06T09:34:31.063Z,1.00
2022-08-06T09:35:44.734Z,1.00
2022-08-06T09:37:49.500Z,0.93
2022-08-06T09:39:59.609Z,0.80
2022-08-06T09:41:30.210Z,0.80
2022-08-06T09:43:02.465Z,0.93
2022-08-06T09:44:41.741Z,1.03
2022-08-06T09:46:14.137Z,0.83
2022-08-06T09:48:02.061Z,1.07
2022-08-06T09:49:58.145Z,0.90
2022-08-06T09:51:50.530Z,1.10
2022-08-06T09:53:23.769Z,0.83
2022-08-06T09:54:55.938Z,0.83
2022-08-06T09:56:28.790Z,0.80
2022-08-06T09:58:01.383Z,1.20
2022-08-06T09:59:50.285Z,1.00
2022-08-06T10:01:24.475Z,1.00
2022-08-06T10:04:02.289Z,1.20
2022-08-06T10:04:55.091Z,1.00
2022-08-06T10:06:27.065Z,0.80
2022-08-06T10:08:28.388Z,0.80
2022-08-06T10:10:00.127Z,0.83
2022-08-06T10:11:41.716Z,0.97
2022-08-06T10:13:24.698Z,0.90
2022-08-06T10:14:58.022Z,0.90
2022-08-06T10:16:31.007Z,1.00
2022-08-06T10:18:05.533Z,0.93
2022-08-06T10:20:10.399Z,0.83
2022-08-06T10:21:47.129Z,1.17
2022-08-06T10:23:19.180Z,0.90
2022-08-06T10:24:55.061Z,0.90
2022-08-06T10:26:33.700Z,1.00
2022-08-06T10:28:06.673Z,1.00
2022-08-06T10:30:02.189Z,1.03
2022-08-06T10:31:37.559Z,1.20
2022-08-06T10:33:22.647Z,1.07
2022-08-06T10:34:56.634Z,1.30
2022-08-06T10:36:36.494Z,1.00
2022-08-06T10:38:14.738Z,1.20
2022-08-06T10:40:09.516Z,0.90
2022-08-06T10:42:00.579Z,1.10
2022-08-06T10:43:38.304Z,0.90
2022-08-06T10:45:16.179Z,1.10
2022-08-06T10:46:48.891Z,1.10
2022-08-06T10:48:58.030Z,1.07
2022-08-06T10:50:32.923Z,1.80
2022-08-06T10:52:07.155Z,0.90
2022-08-06T10:54:01.452Z,1.00
2022-08-06T10:55:44.492Z,1.00
2022-08-06T10:57:19.136Z,0.90
2022-08-06T10:59:07.407Z,0.80
2022-08-06T11:00:41.520Z,1.00
2022-08-06T11:02:38.748Z,1.87
2022-08-06T11:04:49.977Z,1.10
2022-08-06T11:07:02.871Z,1.10
2022-08-06T11:08:58.900Z,0.90
2022-08-06T11:10:37.247Z,1.20
2022-08-06T11:12:17.251Z,1.10
2022-08-06T11:13:57.568Z,0.90
2022-08-06T11:15:38.308Z,0.90
2022-08-06T11:17:12.707Z,0.97
2022-08-06T11:19:07.595Z,0.80
2022-08-06T11:20:47.389Z,0.90
2022-08-06T11:22:53.292Z,0.90
2022-08-06T11:24:26.352Z,0.97
2022-08-06T11:26:03.501Z,0.80
2022-08-06T11:27:59.414Z,0.90
2022-08-06T11:30:12.652Z,0.90
2022-08-06T11:31:56.395Z,0.90
2022-08-06T11:33:34.972Z,0.80
2022-08-06T11:35:42.782Z,1.17
2022-08-06T11:38:03.546Z,1.23
2022-08-06T11:40:05.841Z,0.90
2022-08-06T11:41:59.148Z,1.00
2022-08-06T11:44:03.596Z,0.80
2022-08-06T11:46:21.446Z,1.10
2022-08-06T11:48:27.132Z,1.00
2022-08-06T11:50:02.032Z,0.80
2022-08-06T11:52:05.965Z,1.00
2022-08-06T11:53:52.298Z,1.07
2022-08-06T11:55:24.973Z,1.00
2022-08-06T11:57:15.892Z,1.00
2022-08-06T11:59:15.026Z,1.10
2022-08-06T12:01:03.929Z,0.90
2022-08-06T12:02:57.039Z,0.80
2022-08-06T12:04:38.142Z,0.80
2022-08-06T12:06:26.601Z,1.10
2022-08-06T12:08:41.823Z,0.90
2022-08-06T12:10:15.851Z,0.90
2022-08-06T12:12:26.658Z,0.70
2022-08-06T12:14:33.968Z,0.90
2022-08-06T12:15:59.252Z,0.90
2022-08-06T12:17:45.542Z,0.80
2022-08-06T12:19:24.581Z,0.90
2022-08-06T12:20:56.877Z,1.00
2022-08-06T12:22:34.022Z,1.00
2022-08-06T12:24:06.432Z,0.83
2022-08-06T12:25:45.012Z,1.53
2022-08-06T12:27:17.785Z,0.97
2022-08-06T12:29:00.750Z,1.30
2022-08-06T12:30:53.633Z,1.30
2022-08-06T12:32:30.917Z,1.20
2022-08-06T12:34:03.607Z,1.20
2022-08-06T12:35:36.348Z,0.93
2022-08-06T12:37:10.962Z,1.20
2022-08-06T12:38:55.774Z,1.00
2022-08-06T12:40:36.799Z,0.97
2022-08-06T12:42:52.106Z,0.90
2022-08-06T12:44:20.147Z,0.70
2022-08-06T12:46:18.530Z,1.20
2022-08-06T12:48:11.008Z,0.90
2022-08-06T12:49:43.825Z,1.10
2022-08-06T12:51:17.127Z,1.10
2022-08-06T12:53:12.574Z,1.00
2022-08-06T12:54:45.347Z,0.90
2022-08-06T12:56:29.693Z,0.70
2022-08-06T12:58:07.853Z,0.87
2022-08-06T12:59:45.419Z,0.83
2022-08-06T13:02:11.676Z,0.77
2022-08-06T13:03:14.487Z,0.90
2022-08-06T13:04:51.690Z,0.80
2022-08-06T13:06:32.498Z,1.00
2022-08-06T13:08:08.367Z,0.80
2022-08-06T13:09:56.045Z,0.90
2022-08-06T13:11:34.191Z,1.00
2022-08-06T13:14:14.016Z,1.00
2022-08-06T13:15:22.758Z,0.80
2022-08-06T13:16:56.813Z,0.97
2022-08-06T13:18:35.850Z,1.10
2022-08-06T13:20:17.891Z,0.83
2022-08-06T13:22:05.811Z,0.90
2022-08-06T13:23:39.298Z,0.90
2022-08-06T13:25:30.888Z,0.80
2022-08-06T13:27:11.985Z,1.10
2022-08-06T13:30:35.540Z,1.00
2022-08-06T13:30:57.820Z,0.83
2022-08-06T13:32:36.905Z,0.80
2022-08-06T13:34:11.451Z,1.00
2022-08-06T13:35:45.315Z,1.00
2022-08-06T13:37:56.874Z,0.80
2022-08-06T13:39:53.258Z,0.80
2022-08-06T13:41:29.650Z,1.00
2022-08-06T13:43:01.487Z,0.93
2022-08-06T13:44:41.947Z,1.10
2022-08-06T13:46:20.051Z,1.20
2022-08-06T13:48:06.309Z,0.83
2022-08-06T13:49:40.075Z,0.90
2022-08-06T13:51:22.752Z,0.90
2022-08-06T13:53:00.768Z,1.00
2022-08-06T13:54:44.227Z,0.70
2022-08-06T13:56:21.685Z,0.90
2022-08-06T13:58:01.923Z,0.97
2022-08-06T13:59:42.508Z,1.00
2022-08-06T14:01:15.195Z,0.90
2022-08-06T14:02:47.775Z,1.10
2022-08-06T14:04:23.057Z,1.03
2022-08-06T14:05:57.643Z,0.80
2022-08-06T14:07:34.124Z,1.00
2022-08-06T14:09:18.894Z,1.00
2022-08-06T14:10:54.297Z,0.90
2022-08-06T14:12:29.665Z,1.10
2022-08-06T14:14:01.621Z,1.07
2022-08-06T14:15:42.156Z,1.10
2022-08-06T14:17:14.211Z,1.10
2022-08-06T14:18:59.482Z,0.90
2022-08-06T14:20:33.225Z,0.90
2022-08-06T14:22:05.117Z,0.90
2022-08-06T14:23:40.595Z,1.00
2022-08-06T14:25:52.411Z,1.00
2022-08-06T14:27:23.909Z,1.73
2022-08-06T14:30:28.406Z,1.00
2022-08-06T14:30:52.077Z,1.00
2022-08-06T14:32:26.801Z,1.50
2022-08-06T14:34:01.596Z,1.13
2022-08-06T14:35:38.870Z,1.20
2022-08-06T14:37:13.928Z,1.23
2022-08-06T14:38:46.584Z,1.20
2022-08-06T14:40:38.303Z,1.00
2022-08-06T14:42:48.545Z,1.30
2022-08-06T14:44:38.976Z,1.00
2022-08-06T14:46:12.213Z,0.90
2022-08-06T14:47:59.115Z,0.87
2022-08-06T14:49:33.303Z,0.80
2022-08-06T14:51:23.506Z,0.97
2022-08-06T14:52:55.323Z,1.00
2022-08-06T14:54:31.957Z,0.80
2022-08-06T14:56:08.187Z,0.80
2022-08-06T14:58:03.928Z,0.93
2022-08-06T14:59:48.082Z,0.90
2022-08-06T15:01:21.022Z,1.00
2022-08-06T15:02:54.227Z,1.00
2022-08-06T15:04:26.816Z,0.87
2022-08-06T15:06:04.150Z,1.03
2022-08-06T15:07:41.463Z,1.03
2022-08-06T15:09:13.818Z,0.93
2022-08-06T15:10:45.792Z,1.07
2022-08-06T15:12:35.129Z,1.17
2022-08-06T15:14:10.006Z,0.80
2022-08-06T15:15:47.216Z,1.30
2022-08-06T15:17:49.375Z,1.00
2022-08-06T15:19:20.766Z,0.97
2022-08-06T15:21:04.557Z,0.87
2022-08-06T15:22:37.694Z,0.90
2022-08-06T15:24:11.479Z,0.90
2022-08-06T15:26:01.657Z,1.00
2022-08-06T15:27:35.410Z,0.90
2022-08-06T15:29:10.688Z,0.90
2022-08-06T15:30:47.367Z,1.20
2022-08-06T15:32:19.586Z,1.30
2022-08-06T15:33:51.501Z,0.97
2022-08-06T15:35:38.709Z,1.30
2022-08-06T15:37:53.373Z,1.00
2022-08-06T15:39:09.361Z,1.10
2022-08-06T15:40:42.765Z,1.10
2022-08-06T15:42:14.697Z,1.00
2022-08-06T15:43:51.218Z,1.00
2022-08-06T15:45:51.382Z,1.20
2022-08-06T15:47:16.052Z,0.90
2022-08-06T15:48:53.983Z,1.00
2022-08-06T15:50:34.533Z,1.40
2022-08-06T15:52:12.823Z,1.10
2022-08-06T15:53:54.137Z,0.90
2022-08-06T15:55:31.989Z,1.10
2022-08-06T15:57:04.023Z,0.90
2022-08-06T15:58:36.720Z,1.00
2022-08-06T16:00:17.887Z,0.87
2022-08-06T16:01:52.013Z,1.00
2022-08-06T16:03:33.199Z,1.00
2022-08-06T16:05:09.842Z,1.00
2022-08-06T16:06:43.629Z,0.90
2022-08-06T16:08:33.059Z,0.93
2022-08-06T16:10:25.937Z,0.90
2022-08-06T16:12:02.034Z,1.10
2022-08-06T16:13:34.242Z,1.00
2022-08-06T16:15:08.674Z,1.20
2022-08-06T16:16:41.255Z,1.03
2022-08-06T16:18:30.935Z,1.30
2022-08-06T16:20:06.043Z,1.07
2022-08-06T16:21:37.734Z,1.20
2022-08-06T16:23:57.454Z,1.13
2022-08-06T16:25:04.855Z,0.90
2022-08-06T16:26:42.863Z,1.17
2022-08-06T16:28:26.648Z,0.90
2022-08-06T16:30:06.008Z,1.23
2022-08-06T16:31:47.331Z,1.00
2022-08-06T16:33:20.493Z,1.00
2022-08-06T16:34:58.939Z,1.10
2022-08-06T16:36:32.533Z,1.10
2022-08-06T16:38:12.232Z,1.00
2022-08-06T16:40:00.877Z,1.27
2022-08-06T16:43:26.823Z,1.30
2022-08-06T16:45:02.881Z,1.00
2022-08-06T16:46:43.633Z,1.00
2022-08-06T16:48:25.242Z,1.20
2022-08-06T16:50:26.164Z,1.33
2022-08-06T16:52:42.332Z,1.07
2022-08-06T16:54:12.091Z,1.27
2022-08-06T16:55:35.081Z,1.20
2022-08-06T16:57:06.793Z,0.97
2022-08-06T16:58:42.633Z,1.20
2022-08-06T17:00:59.491Z,1.07
2022-08-06T17:02:27.469Z,1.00
2022-08-06T17:05:53.027Z,1.13
2022-08-06T17:07:41.790Z,1.30
2022-08-06T17:09:17.281Z,0.93
2022-08-06T17:10:58.332Z,1.00
2022-08-06T17:12:33.201Z,1.00
2022-08-06T17:14:05.041Z,1.23
2022-08-06T17:15:53.246Z,0.90
2022-08-06T17:17:37.107Z,1.10
2022-08-06T17:19:17.427Z,1.10
2022-08-06T17:20:51.013Z,0.97
2022-08-06T17:22:26.152Z,0.90
2022-08-06T17:26:01.359Z,1.00
2022-08-06T17:27:44.481Z,1.00
2022-08-06T17:29:46.459Z,0.83
2022-08-06T17:33:12.693Z,1.10
2022-08-06T17:34:44.450Z,1.00
2022-08-06T17:36:29.855Z,1.20
2022-08-06T17:38:15.769Z,1.10
2022-08-06T17:39:51.695Z,1.10
2022-08-06T17:41:26.919Z,1.00
2022-08-06T17:43:22.809Z,0.90
2022-08-06T17:45:10.651Z,0.93
2022-08-06T17:46:48.065Z,1.20
2022-08-06T17:48:24.467Z,1.43
2022-08-06T17:49:57.256Z,1.07
2022-08-06T17:51:32.819Z,0.80
2022-08-06T17:53:18.804Z,1.00
2022-08-06T17:54:54.241Z,1.00
2022-08-06T17:56:29.300Z,1.40
2022-08-06T17:58:33.950Z,1.07
2022-08-06T17:59:54.640Z,0.80
2022-08-06T18:01:44.526Z,1.70
2022-08-06T18:03:24.150Z,1.17
2022-08-06T18:05:35.219Z,1.20
2022-08-06T18:07:11.907Z,1.13
2022-08-06T18:08:50.969Z,0.90
2022-08-06T18:10:31.399Z,1.10
2022-08-06T18:12:05.350Z,1.00
2022-08-06T18:13:53.449Z,1.00
2022-08-06T18:15:40.007Z,1.07
2022-08-06T18:17:16.145Z,1.00
2022-08-06T18:19:04.702Z,1.00
2022-08-06T18:20:39.399Z,1.33
2022-08-06T18:22:22.014Z,0.97
2022-08-06T18:24:00.582Z,1.00
2022-08-06T18:25:55.376Z,1.07
2022-08-06T18:28:03.897Z,1.00
2022-08-06T18:29:17.398Z,1.20
2022-08-06T18:30:49.156Z,1.17
2022-08-06T18:32:27.976Z,1.20
2022-08-06T18:33:59.922Z,1.17
2022-08-06T18:35:54.605Z,1.10
2022-08-06T18:37:30.205Z,1.00
2022-08-06T18:39:13.472Z,1.13
2022-08-06T18:40:56.881Z,1.20
2022-08-06T18:42:32.983Z,1.23
2022-08-06T18:44:04.895Z,1.03
2022-08-06T18:45:59.594Z,0.90
2022-08-06T18:47:29.999Z,1.00
2022-08-06T18:49:05.181Z,1.27
2022-08-06T18:50:37.823Z,1.20
2022-08-06T18:52:22.955Z,1.20
2022-08-06T18:54:00.977Z,1.00
2022-08-06T18:55:53.971Z,1.20
2022-08-06T18:57:38.083Z,1.37
2022-08-06T18:59:26.028Z,1.20
2022-08-06T19:01:00.968Z,1.10
2022-08-06T19:02:32.796Z,1.00
2022-08-06T19:04:05.459Z,1.00
2022-08-06T19:05:40.433Z,1.07
2022-08-06T19:07:22.983Z,1.03
2022-08-06T19:08:59.215Z,1.13
2022-08-06T19:10:30.997Z,1.03
2022-08-06T19:12:12.902Z,1.20
2022-08-06T19:14:16.330Z,1.20
2022-08-06T19:15:46.289Z,1.00
2022-08-06T19:18:09.769Z,1.23
2022-08-06T19:19:15.963Z,1.33
2022-08-06T19:20:48.560Z,1.20
2022-08-06T19:22:20.835Z,1.10
2022-08-06T19:24:03.348Z,1.20
2022-08-06T19:25:41.729Z,1.20
2022-08-06T19:27:23.867Z,1.20
2022-08-06T19:29:15.558Z,1.03
2022-08-06T19:31:07.327Z,1.23
2022-08-06T19:32:43.208Z,1.20
2022-08-06T19:34:17.738Z,1.47
2022-08-06T19:36:07.209Z,1.00
2022-08-06T19:37:59.756Z,1.33
2022-08-06T19:39:53.950Z,1.00
2022-08-06T19:41:55.723Z,1.13
2022-08-06T19:44:27.440Z,1.50
2022-08-06T19:45:16.971Z,1.30
2022-08-06T19:46:56.047Z,1.53
2022-08-06T19:48:29.682Z,1.30
2022-08-06T19:50:03.011Z,1.10
2022-08-06T19:52:02.281Z,1.43
2022-08-06T19:53:31.235Z,1.40
2022-08-06T19:56:06.507Z,1.30
2022-08-06T19:56:56.310Z,1.30
2022-08-06T19:58:27.978Z,2.43
2022-08-06T20:00:50.800Z,1.40
2022-08-06T20:02:08.995Z,1.47
2022-08-06T20:03:52.312Z,1.60
2022-08-06T20:06:19.664Z,1.93
2022-08-06T20:07:24.912Z,2.07
2022-08-06T20:08:57.440Z,1.60
2022-08-06T20:10:35.447Z,1.80
2022-08-06T20:12:11.035Z,1.37
2022-08-06T20:13:43.102Z,1.70
2022-08-06T20:15:27.320Z,1.77
2022-08-06T20:17:01.389Z,1.80
2022-08-06T20:18:36.116Z,1.70
2022-08-06T20:20:08.437Z,1.30
2022-08-06T20:21:43.163Z,1.30
2022-08-06T20:23:16.976Z,1.73
2022-08-06T20:24:49.200Z,1.70
2022-08-06T20:26:35.129Z,1.57
2022-08-06T20:29:07.002Z,1.57
2022-08-06T20:30:05.708Z,1.70
2022-08-06T20:31:44.390Z,1.30
2022-08-06T20:33:19.433Z,1.30
2022-08-06T20:34:56.204Z,1.20
2022-08-06T20:36:31.855Z,1.23
2022-08-06T20:38:07.356Z,1.37
2022-08-06T20:39:39.333Z,1.53
2022-08-06T20:41:56.719Z,1.50
2022-08-06T20:43:05.557Z,1.40
2022-08-06T20:44:39.292Z,1.47
2022-08-06T20:46:11.594Z,1.63
2022-08-06T20:47:54.047Z,1.53
2022-08-06T20:49:29.363Z,1.80
2022-08-06T20:51:19.211Z,2.77
2022-08-06T20:52:52.656Z,2.80
2022-08-06T20:54:32.516Z,2.50
2022-08-06T20:56:05.203Z,2.60
2022-08-06T20:57:47.761Z,2.67
2022-08-06T20:59:20.607Z,2.50
2022-08-06T21:00:52.381Z,2.73
2022-08-06T21:02:25.828Z,2.50
2022-08-06T21:05:13.527Z,2.43
2022-08-06T21:05:56.267Z,2.00
2022-08-06T21:07:37.013Z,2.00
2022-08-06T21:09:10.345Z,1.90
2022-08-06T21:10:42.292Z,1.57
2022-08-06T21:12:18.879Z,2.03
2022-08-06T21:14:03.546Z,1.87
2022-08-06T21:15:54.974Z,1.47
2022-08-06T21:17:35.358Z,1.67
2022-08-06T21:19:09.036Z,1.63
2022-08-06T21:20:40.758Z,1.40
2022-08-06T21:22:19.332Z,1.50
2022-08-06T21:23:57.623Z,1.47
2022-08-06T21:25:39.580Z,1.30
2022-08-06T21:27:14.657Z,1.50
2022-08-06T21:28:54.275Z,1.80
2022-08-06T21:30:29.548Z,1.50
2022-08-06T21:32:02.092Z,1.40
2022-08-06T21:33:34.745Z,1.50
2022-08-06T21:35:15.780Z,1.60
2022-08-06T21:36:49.864Z,1.70
2022-08-06T21:38:26.234Z,1.70
2022-08-06T21:39:58.903Z,2.00
2022-08-06T21:41:55.713Z,2.10
2022-08-06T21:43:23.361Z,1.93
2022-08-06T21:45:00.901Z,2.23
2022-08-06T21:46:34.289Z,2.10
2022-08-06T21:48:08.464Z,2.07
2022-08-06T21:50:04.510Z,1.80
2022-08-06T21:51:35.435Z,2.00
2022-08-06T21:53:49.172Z,1.83
2022-08-06T21:55:05.704Z,2.30
2022-08-06T21:56:45.313Z,1.70
2022-08-06T21:58:19.509Z,1.80
2022-08-06T21:59:52.792Z,1.90
2022-08-06T22:02:09.228Z,1.80
2022-08-06T22:04:38.790Z,1.73
2022-08-06T22:05:16.788Z,1.87
2022-08-06T22:07:02.172Z,2.43
2022-08-06T22:08:36.037Z,1.60
2022-08-06T22:10:08.254Z,1.83
2022-08-06T22:12:37.907Z,1.50
2022-08-06T22:13:50.891Z,1.47
2022-08-06T22:15:25.031Z,1.90
2022-08-06T22:17:02.183Z,1.83
2022-08-06T22:18:34.081Z,1.60
2022-08-06T22:20:11.374Z,1.73
2022-08-06T22:21:53.106Z,1.60
2022-08-06T22:23:30.111Z,1.70
2022-08-06T22:25:05.283Z,2.10
2022-08-06T22:26:37.140Z,1.80
2022-08-06T22:28:09.100Z,2.00
2022-08-06T22:30:13.576Z,1.80
2022-08-06T22:31:57.358Z,2.00
2022-08-06T22:33:45.375Z,2.00
2022-08-06T22:35:27.468Z,2.17
2022-08-06T22:37:03.667Z,1.80
2022-08-06T22:38:35.739Z,1.90
2022-08-06T22:40:10.799Z,1.77
2022-08-06T22:42:06.213Z,1.60
2022-08-06T22:43:51.702Z,2.03
2022-08-06T22:46:00.181Z,1.63